Time;durP1;ratioP1;P1;durP2;ratioP2;P2;SDS_P1;SDS_P2;PMS_P1;PMS_P2;Temp;Humidity;BMP_temperature;BMP_pressure;BME280_temperature;BME280_humidity;BME280_pressure;Samples;Min_cycle;Max_cycle;Signal;HPM_P1;HPM_P2
2022/01/11 00:01:42;;;;;;;30.93;27.57;;;2.30;99.90;;;;;;5049405;28;20450;-78
2022/01/11 00:04:10;;;;;;;31.17;27.97;;;2.30;99.90;;;;;;5048635;28;20491;-78
2022/01/11 00:06:41;;;;;;;29.97;26.83;;;2.30;99.90;;;;;;5050458;28;21016;-79
2022/01/11 00:09:19;;;;;;;33.97;27.87;;;2.30;99.90;;;;;;5047636;28;20473;-78
2022/01/11 00:11:46;;;;;;;34.27;29.30;;;2.30;99.90;;;;;;5048577;28;20861;-79
2022/01/11 00:14:13;;;;;;;31.13;27.67;;;2.30;99.90;;;;;;5049617;28;21010;-79
2022/01/11 00:16:41;;;;;;;32.67;28.93;;;2.30;99.90;;;;;;5048986;28;20476;-79
2022/01/11 00:19:09;;;;;;;31.70;28.40;;;2.40;99.90;;;;;;5049377;28;20876;-79
2022/01/11 00:21:44;;;;;;;31.30;28.13;;;2.40;99.90;;;;;;5050164;28;20434;-80
2022/01/11 00:24:31;;;;;;;35.23;29.40;;;2.40;99.90;;;;;;5046730;28;21039;-79
2022/01/11 00:26:59;;;;;;;32.63;29.13;;;2.40;99.90;;;;;;5033444;28;20475;-79
2022/01/11 00:29:26;;;;;;;33.63;28.80;;;2.50;99.90;;;;;;5048617;28;20451;-78
2022/01/11 00:32:00;;;;;;;38.00;29.30;;;2.50;99.90;;;;;;5032892;28;20444;-78
2022/01/11 00:34:36;;;;;;;34.97;28.97;;;2.40;99.90;;;;;;5050983;28;20466;-79
2022/01/11 00:37:03;;;;;;;33.83;28.03;;;2.50;99.90;;;;;;5041299;28;20486;-78
2022/01/11 00:39:30;;;;;;;31.10;27.80;;;2.50;99.90;;;;;;5051847;28;20442;-79
2022/01/11 00:41:57;;;;;;;30.70;27.53;;;2.50;99.90;;;;;;5043965;28;20454;-79
2022/01/11 00:44:24;;;;;;;34.93;29.57;;;2.50;99.90;;;;;;5047768;28;20868;-79
2022/01/11 00:46:51;;;;;;;30.60;27.43;;;2.60;99.90;;;;;;5047224;28;20475;-79
2022/01/11 00:49:21;;;;;;;29.70;26.40;;;2.50;99.90;;;;;;5046531;28;20443;-79
2022/01/11 00:51:47;;;;;;;30.67;27.23;;;2.50;99.90;;;;;;5049031;28;20482;-79
2022/01/11 00:54:15;;;;;;;29.13;26.33;;;2.50;99.90;;;;;;5039416;28;20468;-79
2022/01/11 00:56:42;;;;;;;31.53;27.60;;;2.60;99.90;;;;;;5050814;28;20827;-79
2022/01/11 00:59:08;;;;;;;33.77;28.10;;;2.60;99.90;;;;;;5043382;28;20434;-79
2022/01/11 01:01:37;;;;;;;33.27;28.13;;;2.60;99.90;;;;;;5047619;28;20959;-80
2022/01/11 01:04:05;;;;;;;34.23;27.17;;;2.60;99.90;;;;;;5044716;28;20461;-79
2022/01/11 01:06:33;;;;;;;34.00;28.33;;;2.60;99.90;;;;;;5046550;28;20805;-79
2022/01/11 01:09:01;;;;;;;32.07;28.53;;;2.60;99.90;;;;;;5041585;28;20446;-79
2022/01/11 01:11:32;;;;;;;30.27;27.07;;;2.60;99.90;;;;;;5041443;28;20457;-79
2022/01/11 01:13:59;;;;;;;33.07;26.77;;;2.60;99.90;;;;;;5048426;28;20438;-77
2022/01/11 01:16:26;;;;;;;29.17;25.97;;;2.60;99.90;;;;;;5045469;28;20507;-78
2022/01/11 01:18:59;;;;;;;29.30;26.20;;;2.60;99.90;;;;;;5046831;28;20454;-79
2022/01/11 01:21:26;;;;;;;27.37;24.57;;;2.50;99.90;;;;;;5046440;28;20446;-79
2022/01/11 01:23:54;;;;;;;28.70;25.80;;;2.50;99.90;;;;;;5037365;28;20446;-78
2022/01/11 01:26:21;;;;;;;28.67;25.67;;;2.50;99.90;;;;;;5051297;28;20445;-77
2022/01/11 01:28:48;;;;;;;33.70;29.10;;;2.50;99.90;;;;;;5044906;28;20450;-78
2022/01/11 01:31:15;;;;;;;31.57;28.37;;;2.50;99.90;;;;;;5051865;28;20559;-79
2022/01/11 01:33:42;;;;;;;34.33;29.77;;;2.50;99.90;;;;;;5045446;28;20439;-79
2022/01/11 01:36:11;;;;;;;35.00;29.00;;;2.50;99.90;;;;;;5054226;28;20563;-79
2022/01/11 01:38:39;;;;;;;33.77;28.73;;;2.40;99.90;;;;;;5043890;28;20513;-79
2022/01/11 01:41:14;;;;;;;30.93;27.33;;;2.40;99.90;;;;;;5044903;28;20497;-79
2022/01/11 01:43:41;;;;;;;31.77;28.40;;;2.30;99.90;;;;;;5048191;28;20521;-79
2022/01/11 01:46:08;;;;;;;36.23;28.87;;;2.30;99.90;;;;;;5037708;28;20456;-79
2022/01/11 01:48:36;;;;;;;32.00;28.50;;;2.30;99.90;;;;;;5049762;28;20478;-79
2022/01/11 01:51:05;;;;;;;30.43;26.97;;;2.20;99.90;;;;;;5043375;28;20952;-80
2022/01/11 01:53:32;;;;;;;35.17;28.80;;;2.20;99.90;;;;;;5046114;28;20481;-79
2022/01/11 01:55:59;;;;;;;32.83;28.73;;;2.10;99.90;;;;;;5044141;28;20474;-80
2022/01/11 01:58:29;;;;;;;30.37;27.23;;;2.10;99.90;;;;;;5045134;28;20462;-79
2022/01/11 02:01:02;;;;;;;34.03;29.00;;;2.00;99.90;;;;;;5044029;28;20451;-79
2022/01/11 02:03:31;;;;;;;35.17;28.20;;;2.00;99.90;;;;;;5034775;28;20449;-79
2022/01/11 02:05:59;;;;;;;34.43;27.50;;;2.00;99.90;;;;;;5048062;28;20498;-79
2022/01/11 02:08:26;;;;;;;33.53;29.17;;;2.00;99.90;;;;;;5034500;28;20467;-79
2022/01/11 02:10:54;;;;;;;33.57;28.17;;;2.00;99.90;;;;;;5042481;28;20462;-79
2022/01/11 02:13:22;;;;;;;33.33;28.37;;;2.00;99.90;;;;;;5047944;28;20432;-78
2022/01/11 02:15:51;;;;;;;31.97;27.17;;;2.00;99.90;;;;;;5040420;28;21064;-79
2022/01/11 02:18:21;;;;;;;29.23;26.23;;;2.00;99.90;;;;;;5041765;28;20440;-79
2022/01/11 02:20:53;;;;;;;30.93;26.57;;;1.90;99.90;;;;;;5042414;28;20843;-78
2022/01/11 02:23:28;;;;;;;28.30;25.50;;;1.90;99.90;;;;;;5045574;28;20440;-79
2022/01/11 02:25:56;;;;;;;28.67;25.57;;;2.00;99.90;;;;;;5042605;28;20448;-78
2022/01/11 02:28:26;;;;;;;32.17;25.27;;;1.90;99.90;;;;;;5043650;28;20479;-79
2022/01/11 02:30:55;;;;;;;32.20;26.33;;;1.90;99.90;;;;;;5036759;28;20453;-78
2022/01/11 02:33:34;;;;;;;35.97;26.57;;;2.00;99.90;;;;;;5038450;28;20454;-78
2022/01/11 02:36:35;;;;;;;34.60;28.53;;;2.00;99.90;;;;;;5023576;28;20478;-78
2022/01/11 02:39:16;;;;;;;31.27;26.80;;;1.90;99.90;;;;;;5044672;28;20541;-79
2022/01/11 02:41:50;;;;;;;31.50;27.13;;;1.90;99.90;;;;;;5039434;28;20446;-79
2022/01/11 02:44:21;;;;;;;35.37;27.00;;;1.90;99.90;;;;;;5041255;28;20444;-79
2022/01/11 02:46:48;;;;;;;30.03;26.80;;;2.00;99.90;;;;;;5041928;28;20971;-79
2022/01/11 02:49:15;;;;;;;29.27;26.27;;;2.00;99.90;;;;;;5044053;28;20502;-79
2022/01/11 02:51:48;;;;;;;33.37;28.20;;;2.00;99.90;;;;;;5037023;28;20472;-79
2022/01/11 02:54:16;;;;;;;31.17;27.77;;;2.00;99.90;;;;;;5043319;28;20453;-79
2022/01/11 02:56:45;;;;;;;30.97;26.67;;;2.00;99.90;;;;;;5039705;28;20518;-79
2022/01/11 02:59:12;;;;;;;29.90;26.37;;;2.00;99.90;;;;;;5037564;28;20447;-79
2022/01/11 03:01:40;;;;;;;30.27;25.53;;;2.00;99.90;;;;;;5045836;28;21001;-79
2022/01/11 03:04:08;;;;;;;30.10;26.93;;;2.10;99.90;;;;;;5041247;28;21050;-79
2022/01/11 03:06:35;;;;;;;31.33;27.53;;;2.10;99.90;;;;;;5043753;28;20890;-79
2022/01/11 03:09:03;;;;;;;32.67;27.57;;;2.10;99.90;;;;;;5041974;28;20449;-79
2022/01/11 03:11:32;;;;;;;31.27;27.97;;;2.10;99.90;;;;;;5039824;28;20488;-79
2022/01/11 03:14:01;;;;;;;29.07;26.10;;;2.10;99.90;;;;;;5036697;28;20879;-77
2022/01/11 03:16:28;;;;;;;33.50;28.23;;;2.10;99.90;;;;;;5045132;28;20483;-77
2022/01/11 03:18:56;;;;;;;33.30;26.93;;;2.10;99.90;;;;;;5037239;28;20453;-78
2022/01/11 03:21:23;;;;;;;40.00;29.50;;;2.10;99.90;;;;;;5042772;28;20514;-78
2022/01/11 03:23:49;;;;;;;34.27;27.73;;;2.10;99.90;;;;;;5044574;28;20904;-78
2022/01/11 03:26:18;;;;;;;35.63;28.17;;;2.10;99.90;;;;;;5046606;28;20442;-78
2022/01/11 03:28:46;;;;;;;35.13;29.87;;;2.10;99.90;;;;;;5047755;28;20472;-78
2022/01/11 03:31:12;;;;;;;38.17;29.83;;;2.10;99.90;;;;;;5047841;28;20529;-78
2022/01/11 03:33:46;;;;;;;40.63;32.27;;;2.20;99.90;;;;;;5046955;28;20442;-78
2022/01/11 03:36:13;;;;;;;44.37;31.73;;;2.20;99.90;;;;;;5037749;28;20475;-78
2022/01/11 03:38:41;;;;;;;42.03;31.60;;;2.20;99.90;;;;;;5045694;28;20965;-79
2022/01/11 03:41:13;;;;;;;41.60;30.20;;;2.20;99.90;;;;;;5047322;28;20974;-78
2022/01/11 03:43:41;;;;;;;43.10;31.13;;;2.20;99.90;;;;;;5033445;28;20467;-86
2022/01/11 03:46:12;;;;;;;41.57;31.20;;;2.20;99.90;;;;;;5032564;28;20447;-84
2022/01/11 03:48:39;;;;;;;39.67;30.87;;;2.20;99.90;;;;;;5044810;28;20473;-82
2022/01/11 03:51:06;;;;;;;39.17;32.67;;;2.20;99.90;;;;;;5039977;28;20464;-86
2022/01/11 03:54:07;;;;;;;40.57;29.43;;;2.20;99.90;;;;;;5041334;28;20918;-84
2022/01/11 03:57:04;;;;;;;40.37;30.87;;;2.20;99.90;;;;;;5027609;28;20494;-83
2022/01/11 03:59:38;;;;;;;38.03;30.63;;;2.20;99.90;;;;;;5033969;28;20515;-82
2022/01/11 04:02:08;;;;;;;38.57;31.73;;;2.20;99.90;;;;;;5045239;28;20538;-83
2022/01/11 04:04:35;;;;;;;38.47;30.93;;;2.20;99.90;;;;;;5041356;28;20477;-84
2022/01/11 04:07:24;;;;;;;40.87;31.07;;;2.20;99.90;;;;;;5048273;28;20474;-85
2022/01/11 04:09:53;;;;;;;38.87;30.43;;;2.30;99.90;;;;;;5036993;28;20478;-81
2022/01/11 04:12:21;;;;;;;40.40;30.53;;;2.30;99.90;;;;;;5037465;28;20554;-80
2022/01/11 04:14:50;;;;;;;37.37;30.67;;;2.30;99.90;;;;;;5045191;28;20796;-82
2022/01/11 04:17:17;;;;;;;41.27;31.07;;;2.40;99.90;;;;;;5030755;28;20465;-80
2022/01/11 04:19:45;;;;;;;40.83;31.27;;;2.30;99.90;;;;;;5029137;28;20451;-82
2022/01/11 04:22:32;;;;;;;42.53;31.07;;;2.40;99.90;;;;;;5033413;28;20533;-82
2022/01/11 04:25:24;;;;;;;37.40;29.03;;;2.40;99.90;;;;;;5038575;28;20437;-81
2022/01/11 04:27:55;;;;;;;35.17;30.37;;;2.40;99.90;;;;;;5041366;28;20466;-78
2022/01/11 04:30:23;;;;;;;37.90;32.43;;;2.40;99.90;;;;;;5044271;28;20452;-79
2022/01/11 04:32:53;;;;;;;37.73;29.90;;;2.40;99.90;;;;;;5048624;28;20869;-81
2022/01/11 04:35:21;;;;;;;37.77;30.63;;;2.50;99.90;;;;;;5048345;28;20894;-81
2022/01/11 04:37:51;;;;;;;44.20;31.30;;;2.50;99.90;;;;;;5047046;28;20489;-82
2022/01/11 04:40:18;;;;;;;38.80;29.47;;;2.50;99.90;;;;;;5046336;28;20447;-82
2022/01/11 04:42:47;;;;;;;36.87;30.40;;;2.50;99.90;;;;;;5029128;28;20450;-82
2022/01/11 04:45:15;;;;;;;34.30;29.90;;;2.50;99.90;;;;;;5046583;28;20908;-82
2022/01/11 04:47:45;;;;;;;39.80;30.83;;;2.50;99.90;;;;;;5044465;28;20471;-81
2022/01/11 04:50:12;;;;;;;39.70;30.87;;;2.50;99.90;;;;;;5040754;28;20447;-83
2022/01/11 05:01:19;;;;;;;36.17;29.93;;;2.50;99.90;;;;;;4862031;29;20877;-79
2022/01/11 05:35:42;;;;;;;35.70;28.93;;;2.40;99.90;;;;;;1300681;26;20466;-81
2022/01/11 05:38:13;;;;;;;40.40;30.00;;;2.50;99.90;;;;;;5046757;28;20462;-81
2022/01/11 05:43:54;;;;;;;37.43;29.47;;;2.50;99.90;;;;;;5030037;28;20435;-80
2022/01/11 05:46:22;;;;;;;37.53;29.03;;;2.50;99.90;;;;;;5047002;28;20448;-79
2022/01/11 05:48:50;;;;;;;35.33;28.47;;;2.50;99.90;;;;;;5060989;22;20435;-81
2022/01/11 05:51:19;;;;;;;42.07;30.57;;;2.50;99.90;;;;;;5027756;28;21010;-82
2022/01/11 05:53:47;;;;;;;37.77;31.27;;;2.40;99.90;;;;;;5029239;28;20452;-81
2022/01/11 05:56:14;;;;;;;39.67;30.60;;;2.50;99.90;;;;;;5029479;28;20510;-82
2022/01/11 05:58:43;;;;;;;39.03;30.00;;;2.40;99.90;;;;;;5026316;28;20451;-82
2022/01/11 06:01:10;;;;;;;34.93;30.27;;;2.40;99.90;;;;;;5057063;28;20831;-81
2022/01/11 06:03:37;;;;;;;33.43;29.70;;;2.50;99.90;;;;;;5051699;28;20471;-82
2022/01/11 06:06:05;;;;;;;39.80;29.93;;;2.50;99.90;;;;;;5047896;28;20942;-82
2022/01/11 06:08:36;;;;;;;37.57;31.47;;;2.50;99.90;;;;;;5044055;28;20452;-81
2022/01/11 06:11:03;;;;;;;40.73;31.07;;;2.50;99.90;;;;;;5038054;28;20485;-80
2022/01/11 06:13:33;;;;;;;38.20;30.17;;;2.50;99.90;;;;;;5046728;28;20443;-81
2022/01/11 06:16:00;;;;;;;44.20;33.43;;;2.50;99.90;;;;;;5044005;28;20498;-81
2022/01/11 06:18:27;;;;;;;42.87;33.07;;;2.50;99.90;;;;;;5037163;28;20968;-81
2022/01/11 06:21:18;;;;;;;48.17;34.37;;;2.40;99.90;;;;;;5039521;28;20587;-81
2022/01/11 06:23:48;;;;;;;44.90;33.77;;;2.40;99.90;;;;;;5043105;28;20955;-81
2022/01/11 06:26:15;;;;;;;43.23;32.43;;;2.40;99.90;;;;;;5043023;28;21018;-81
2022/01/11 06:28:42;;;;;;;38.57;32.63;;;2.40;99.90;;;;;;5043112;28;20539;-81
2022/01/11 06:31:10;;;;;;;43.27;33.77;;;2.40;99.90;;;;;;5043186;28;20459;-81
2022/01/11 06:33:39;;;;;;;47.67;34.07;;;2.40;99.90;;;;;;5037127;28;20445;-81
2022/01/11 06:36:09;;;;;;;39.13;32.13;;;2.50;99.90;;;;;;5047775;28;20465;-81
2022/01/11 06:38:37;;;;;;;40.17;33.93;;;2.50;99.90;;;;;;5039904;28;20449;-81
2022/01/11 06:41:06;;;;;;;39.23;32.10;;;2.50;99.90;;;;;;5041361;28;20450;-81
2022/01/11 06:43:33;;;;;;;34.93;29.87;;;2.50;99.90;;;;;;5043205;28;20444;-81
2022/01/11 06:46:01;;;;;;;40.10;32.07;;;2.50;99.90;;;;;;5047659;28;20445;-81
2022/01/11 06:48:28;;;;;;;36.07;31.03;;;2.50;99.90;;;;;;5042697;28;20451;-81
2022/01/11 06:50:55;;;;;;;39.53;30.10;;;2.40;99.90;;;;;;5035113;28;20542;-81
2022/01/11 06:53:25;;;;;;;36.93;30.77;;;2.40;99.90;;;;;;5035487;28;20466;-81
2022/01/11 06:55:53;;;;;;;38.57;30.10;;;2.40;99.90;;;;;;5044024;28;20512;-82
2022/01/11 06:58:23;;;;;;;42.23;31.87;;;2.40;99.90;;;;;;5048655;28;20443;-81
2022/01/11 07:00:51;;;;;;;40.27;31.43;;;2.40;99.90;;;;;;5058605;28;20448;-81
2022/01/11 07:03:18;;;;;;;40.93;31.90;;;2.40;99.90;;;;;;5055503;28;20442;-79
2022/01/11 07:05:53;;;;;;;39.87;32.27;;;2.40;99.90;;;;;;5054277;28;20457;-79
2022/01/11 07:08:20;;;;;;;41.83;32.77;;;2.40;99.90;;;;;;5045780;28;20446;-80
2022/01/11 07:10:48;;;;;;;48.87;33.80;;;2.40;99.90;;;;;;5049934;28;20508;-80
2022/01/11 07:13:15;;;;;;;48.10;35.97;;;2.40;99.90;;;;;;5045484;28;20450;-80
2022/01/11 07:15:44;;;;;;;42.90;33.03;;;2.40;99.90;;;;;;5051276;28;20516;-80
2022/01/11 07:18:13;;;;;;;47.07;34.20;;;2.40;99.90;;;;;;5043753;28;20859;-81
2022/01/11 07:20:43;;;;;;;43.67;32.43;;;2.40;99.90;;;;;;5040855;28;20974;-80
2022/01/11 07:23:13;;;;;;;47.10;34.00;;;2.40;99.90;;;;;;5041641;28;20454;-80
2022/01/11 07:25:42;;;;;;;41.10;33.23;;;2.40;99.90;;;;;;5044256;28;20442;-81
2022/01/11 07:28:10;;;;;;;51.17;33.73;;;2.40;99.90;;;;;;5054935;28;20516;-79
2022/01/11 07:30:39;;;;;;;39.83;31.70;;;2.30;99.90;;;;;;5046131;28;20465;-80
2022/01/11 07:33:07;;;;;;;40.73;32.10;;;2.40;99.90;;;;;;5045123;28;20497;-80
2022/01/11 07:35:34;;;;;;;42.73;33.23;;;2.40;99.90;;;;;;5048270;28;20484;-80
2022/01/11 07:38:01;;;;;;;39.97;32.43;;;2.40;99.90;;;;;;5046076;28;20483;-80
2022/01/11 07:40:29;;;;;;;44.63;33.90;;;2.50;99.90;;;;;;5046902;28;20458;-80
2022/01/11 07:43:03;;;;;;;39.60;32.70;;;2.50;99.90;;;;;;5042172;28;20499;-80
2022/01/11 07:45:38;;;;;;;38.23;31.53;;;2.50;99.90;;;;;;5046069;28;20452;-80
2022/01/11 07:48:08;;;;;;;39.40;32.23;;;2.50;99.90;;;;;;5044965;28;20452;-81
2022/01/11 07:50:42;;;;;;;41.33;31.93;;;2.50;99.90;;;;;;5040578;28;20786;-80
2022/01/11 07:53:09;;;;;;;42.97;32.90;;;2.50;99.90;;;;;;5042911;28;20445;-80
2022/01/11 07:55:41;;;;;;;46.60;33.97;;;2.50;99.90;;;;;;5047324;28;20839;-80
2022/01/11 07:58:12;;;;;;;46.93;33.63;;;2.50;99.90;;;;;;5046028;28;20491;-80
2022/01/11 08:00:40;;;;;;;38.23;32.33;;;2.60;99.90;;;;;;5041267;28;20462;-80
2022/01/11 08:03:09;;;;;;;42.83;32.93;;;2.70;99.90;;;;;;5045804;28;20511;-80
2022/01/11 08:05:50;;;;;;;36.20;32.30;;;2.70;99.90;;;;;;5043057;28;20452;-80
2022/01/11 08:08:17;;;;;;;37.03;31.17;;;2.70;99.90;;;;;;5042333;28;20549;-80
2022/01/11 08:10:44;;;;;;;41.80;34.17;;;2.70;99.90;;;;;;5051264;28;20886;-81
2022/01/11 08:13:11;;;;;;;41.23;31.70;;;2.70;99.90;;;;;;5045984;28;20827;-81
2022/01/11 08:15:41;;;;;;;38.53;31.80;;;2.70;99.90;;;;;;5049895;28;20456;-81
2022/01/11 08:18:11;;;;;;;44.13;33.67;;;2.70;99.90;;;;;;5048136;28;20484;-81
2022/01/11 08:20:39;;;;;;;42.00;31.40;;;2.70;99.90;;;;;;5043275;28;20558;-81
2022/01/11 08:23:08;;;;;;;35.37;30.47;;;2.80;99.90;;;;;;5042386;28;20453;-82
2022/01/11 08:25:36;;;;;;;40.30;32.50;;;2.80;99.90;;;;;;5047432;28;20450;-80
2022/01/11 08:28:04;;;;;;;38.93;31.53;;;2.70;99.90;;;;;;5046160;28;20502;-81
2022/01/11 08:30:33;;;;;;;38.93;30.03;;;2.80;99.90;;;;;;5047266;28;20462;-80
2022/01/11 08:33:05;;;;;;;37.90;30.17;;;2.90;99.90;;;;;;5044208;28;20438;-80
2022/01/11 08:35:35;;;;;;;37.00;30.33;;;2.90;99.90;;;;;;5039415;28;20460;-81
2022/01/11 08:38:02;;;;;;;35.47;28.80;;;2.90;99.90;;;;;;5045856;28;20546;-80
2022/01/11 08:40:31;;;;;;;35.23;29.90;;;3.00;99.90;;;;;;5040146;28;20474;-80
2022/01/11 08:43:04;;;;;;;33.97;30.27;;;3.00;99.90;;;;;;5043376;28;20465;-81
2022/01/11 08:45:35;;;;;;;41.07;32.10;;;3.00;99.90;;;;;;5045853;28;20202;-81
2022/01/11 08:48:07;;;;;;;40.07;31.03;;;3.00;99.90;;;;;;5046112;28;20448;-81
2022/01/11 08:50:41;;;;;;;45.70;32.57;;;3.00;99.90;;;;;;5046332;28;20462;-81
2022/01/11 08:53:08;;;;;;;37.63;30.80;;;3.10;99.90;;;;;;5046457;28;20553;-81
2022/01/11 08:55:36;;;;;;;39.87;32.33;;;3.20;99.90;;;;;;5047392;28;20960;-81
2022/01/11 08:58:04;;;;;;;36.17;30.90;;;3.10;99.90;;;;;;5040393;28;20474;-80
2022/01/11 09:00:32;;;;;;;34.97;29.53;;;3.20;99.90;;;;;;5045675;28;20484;-80
2022/01/11 09:03:06;;;;;;;38.90;29.53;;;3.30;99.90;;;;;;5044889;28;21004;-81
2022/01/11 09:05:41;;;;;;;38.20;31.40;;;3.40;99.90;;;;;;5045100;28;20445;-81
2022/01/11 09:08:09;;;;;;;37.50;30.87;;;3.40;99.90;;;;;;5049963;28;20461;-81
2022/01/11 09:10:36;;;;;;;33.53;29.87;;;3.50;99.90;;;;;;5042795;28;20477;-81
2022/01/11 09:13:03;;;;;;;33.63;29.70;;;3.40;99.90;;;;;;5045269;28;20466;-80
2022/01/11 09:15:32;;;;;;;36.13;31.80;;;3.50;99.90;;;;;;5043362;28;20195;-81
2022/01/11 09:18:02;;;;;;;36.20;30.23;;;3.50;99.90;;;;;;5042744;28;20473;-81
2022/01/11 09:20:30;;;;;;;31.77;28.27;;;3.50;99.90;;;;;;5031201;28;20473;-81
2022/01/11 09:22:59;;;;;;;31.60;28.20;;;3.60;99.90;;;;;;5043000;28;20296;-80
2022/01/11 09:25:29;;;;;;;35.03;27.93;;;3.60;99.90;;;;;;5043181;28;20202;-81
2022/01/11 09:28:02;;;;;;;28.20;20.13;;;3.80;99.90;;;;;;5042933;28;20287;-81
2022/01/11 09:30:29;;;;;;;32.47;21.87;;;3.80;99.90;;;;;;5041187;28;20707;-80
2022/01/11 09:32:57;;;;;;;29.97;23.17;;;3.90;99.90;;;;;;5040287;28;20200;-80
2022/01/11 09:35:27;;;;;;;27.20;20.20;;;4.00;99.90;;;;;;5035691;28;20442;-81
2022/01/11 09:38:07;;;;;;;35.50;28.23;;;4.00;99.90;;;;;;5037248;28;20472;-81
2022/01/11 09:40:34;;;;;;;34.13;28.87;;;4.00;99.90;;;;;;5042756;28;20245;-81
2022/01/11 09:43:07;;;;;;;39.00;30.67;;;4.00;99.90;;;;;;5041332;28;20244;-81
2022/01/11 09:45:35;;;;;;;32.33;27.67;;;4.00;99.90;;;;;;5043008;28;20656;-80
2022/01/11 09:48:03;;;;;;;32.73;28.40;;;4.00;99.90;;;;;;5042878;28;20191;-80
2022/01/11 09:50:35;;;;;;;29.57;26.07;;;4.20;99.90;;;;;;5044609;28;20226;-80
2022/01/11 09:53:06;;;;;;;34.00;29.20;;;4.30;99.90;;;;;;5042720;28;20195;-80
2022/01/11 09:55:37;;;;;;;30.70;26.43;;;4.30;99.90;;;;;;5049617;28;20965;-81
2022/01/11 09:58:05;;;;;;;29.00;25.90;;;4.50;99.90;;;;;;5042804;28;20285;-81
2022/01/11 10:00:54;;;;;;;29.37;26.33;;;4.60;99.90;;;;;;5016701;28;20290;-81
2022/01/11 10:03:59;;;;;;;30.97;26.63;;;4.60;99.90;;;;;;5045482;28;20257;-81
2022/01/11 10:06:37;;;;;;;28.67;25.70;;;4.60;99.90;;;;;;5028093;28;20206;-80
2022/01/11 10:09:16;;;;;;;27.63;24.70;;;4.70;99.90;;;;;;5042784;28;20219;-80
2022/01/11 10:11:45;;;;;;;30.10;25.63;;;4.70;99.90;;;;;;5040537;28;20664;-80
2022/01/11 10:14:26;;;;;;;29.53;26.43;;;4.80;99.90;;;;;;5039110;28;20289;-81
2022/01/11 10:17:08;;;;;;;30.27;26.63;;;4.90;99.90;;;;;;5041128;28;20686;-81
2022/01/11 10:19:36;;;;;;;28.47;25.07;;;5.00;99.90;;;;;;5035002;28;20265;-80
2022/01/11 10:22:05;;;;;;;26.83;23.87;;;5.00;99.90;;;;;;5041854;28;20261;-81
2022/01/11 10:24:37;;;;;;;27.00;24.10;;;5.10;99.90;;;;;;5042911;28;20221;-80
2022/01/11 10:27:14;;;;;;;26.33;23.53;;;5.10;99.90;;;;;;5039769;28;20554;-81
2022/01/11 10:29:44;;;;;;;26.43;23.37;;;5.00;99.90;;;;;;5044709;28;20220;-80
2022/01/11 10:32:19;;;;;;;24.80;22.20;;;5.00;99.90;;;;;;5044078;28;20227;-80
2022/01/11 10:34:49;;;;;;;26.77;19.93;;;5.00;99.90;;;;;;5036400;28;20253;-80
2022/01/11 10:37:29;;;;;;;24.17;20.63;;;5.00;99.90;;;;;;5041818;28;20214;-80
2022/01/11 10:40:11;;;;;;;20.73;17.20;;;5.10;99.90;;;;;;5041854;28;20227;-81
2022/01/11 10:42:45;;;;;;;22.33;19.97;;;5.20;99.90;;;;;;5032706;28;20203;-81
2022/01/11 10:45:14;;;;;;;22.50;15.27;;;5.30;99.90;;;;;;5039147;28;20194;-81
2022/01/11 10:47:46;;;;;;;20.67;14.13;;;5.30;99.90;;;;;;5043230;28;20706;-80
2022/01/11 10:50:18;;;;;;;25.40;15.77;;;5.40;99.90;;;;;;5044074;28;20219;-80
2022/01/11 10:52:45;;;;;;;18.27;13.47;;;5.50;99.90;;;;;;5039123;28;20291;-80
2022/01/11 10:55:21;;;;;;;25.10;13.97;;;5.30;99.90;;;;;;5042781;28;20556;-80
2022/01/11 10:57:53;;;;;;;18.57;12.33;;;5.40;99.90;;;;;;5038236;28;20225;-80
2022/01/11 11:00:28;;;;;;;17.33;12.83;;;5.30;99.90;;;;;;5034952;28;20648;-81
2022/01/11 11:02:58;;;;;;;17.90;15.80;;;5.40;99.90;;;;;;5042013;28;20284;-80
2022/01/11 11:05:30;;;;;;;16.80;12.37;;;5.40;99.90;;;;;;5038409;28;20208;-80
2022/01/11 11:08:04;;;;;;;16.60;12.27;;;5.40;99.90;;;;;;5048468;28;20195;-82
2022/01/11 11:10:36;;;;;;;17.30;13.57;;;5.30;99.90;;;;;;5055647;28;20235;-80
2022/01/11 11:13:04;;;;;;;16.00;12.43;;;5.30;99.90;;;;;;5066529;28;20199;-80
2022/01/11 11:15:33;;;;;;;16.03;11.73;;;5.20;99.90;;;;;;5070657;28;20206;-80
2022/01/11 11:18:03;;;;;;;14.77;11.23;;;5.30;99.90;;;;;;5058338;28;20215;-80
2022/01/11 11:20:38;;;;;;;21.23;19.20;;;5.40;99.90;;;;;;5049746;28;20254;-81
2022/01/11 11:23:06;;;;;;;17.30;12.43;;;5.40;99.90;;;;;;5041203;28;20653;-81
2022/01/11 11:25:34;;;;;;;16.73;13.93;;;5.50;99.90;;;;;;5045115;28;20253;-80
2022/01/11 11:28:01;;;;;;;16.17;11.07;;;5.40;99.90;;;;;;5045338;28;20618;-80
2022/01/11 11:30:28;;;;;;;13.77;10.47;;;5.40;99.90;;;;;;5054487;28;20246;-81
2022/01/11 11:32:55;;;;;;;13.87;9.60;;;5.40;99.90;;;;;;5054039;28;20199;-81
2022/01/11 11:35:22;;;;;;;13.47;9.77;;;5.50;99.90;;;;;;5047496;28;20260;-81
2022/01/11 11:37:55;;;;;;;14.27;9.87;;;5.50;99.90;;;;;;5042284;28;20251;-81
2022/01/11 11:40:24;;;;;;;10.20;8.13;;;5.40;99.90;;;;;;5038623;28;20773;-81
2022/01/11 11:42:55;;;;;;;13.93;9.20;;;5.50;99.90;;;;;;5056280;28;20191;-81
2022/01/11 11:45:25;;;;;;;11.53;8.77;;;5.50;99.90;;;;;;5047327;28;20214;-80
2022/01/11 11:47:54;;;;;;;13.53;9.27;;;5.40;99.90;;;;;;5047258;28;20195;-80
2022/01/11 11:50:22;;;;;;;14.27;10.80;;;5.40;99.90;;;;;;5068849;22;20286;-78
2022/01/11 11:52:51;;;;;;;14.40;12.93;;;5.50;99.90;;;;;;5041651;28;20230;-78
2022/01/11 11:55:23;;;;;;;11.30;8.67;;;5.50;99.90;;;;;;5042502;28;20228;-79
2022/01/11 11:57:54;;;;;;;15.87;14.57;;;5.40;99.90;;;;;;5042357;28;20212;-79
2022/01/11 12:00:24;;;;;;;16.57;15.17;;;5.40;99.90;;;;;;5043430;28;20253;-78
2022/01/11 12:02:53;;;;;;;17.00;15.60;;;5.50;99.90;;;;;;5042095;28;20257;-79
2022/01/11 12:05:36;;;;;;;19.30;17.63;;;5.50;99.90;;;;;;5038677;28;20227;-78
2022/01/11 12:08:36;;;;;;;18.43;16.63;;;5.50;99.90;;;;;;5041305;28;20192;-79
2022/01/11 12:11:07;;;;;;;16.97;15.47;;;5.40;99.90;;;;;;4939014;29;20269;-79
2022/01/11 12:13:46;;;;;;;17.27;15.67;;;5.60;99.90;;;;;;5031224;28;20216;-79
2022/01/11 12:16:39;;;;;;;19.40;17.83;;;5.70;99.90;;;;;;5041513;28;20192;-80
2022/01/11 12:19:12;;;;;;;18.00;16.50;;;5.90;99.90;;;;;;5041730;28;20230;-79
2022/01/11 12:21:43;;;;;;;17.10;15.73;;;5.80;99.90;;;;;;5043209;28;20278;-79
2022/01/11 12:24:11;;;;;;;17.73;16.33;;;5.60;99.90;;;;;;5044247;28;20199;-81
2022/01/11 12:26:38;;;;;;;16.50;15.20;;;5.60;99.90;;;;;;5041933;28;20204;-81
2022/01/11 12:29:27;;;;;;;16.40;15.23;;;5.60;99.90;;;;;;5044489;28;20196;-79
2022/01/11 12:32:00;;;;;;;16.60;15.23;;;5.60;99.90;;;;;;5039877;28;20692;-81
2022/01/11 12:34:56;;;;;;;16.90;15.60;;;5.60;99.90;;;;;;5042211;28;20211;-81
2022/01/11 12:37:35;;;;;;;15.17;14.03;;;5.50;99.90;;;;;;5040800;28;20234;-82
2022/01/11 12:40:29;;;;;;;14.13;13.20;;;5.50;99.90;;;;;;5040555;28;20205;-80
2022/01/11 12:43:02;;;;;;;13.83;12.93;;;5.60;99.90;;;;;;5044050;28;20577;-79
2022/01/11 12:46:04;;;;;;;13.80;12.90;;;5.70;99.90;;;;;;5036431;28;20295;-77
2022/01/11 12:48:59;;;;;;;15.00;14.10;;;5.80;99.90;;;;;;5036322;28;20207;-79
2022/01/11 12:51:29;;;;;;;14.40;13.50;;;5.80;99.90;;;;;;5044361;28;20200;-82
2022/01/11 12:54:30;;;;;;;14.33;13.33;;;5.60;99.90;;;;;;5045141;28;20208;-81
2022/01/11 12:56:59;;;;;;;13.90;12.97;;;5.50;99.90;;;;;;5042081;28;20206;-82
2022/01/11 12:59:29;;;;;;;15.57;14.57;;;5.50;99.90;;;;;;5047555;28;20231;-79
2022/01/11 13:02:11;;;;;;;14.60;13.20;;;5.50;99.90;;;;;;5047420;28;20195;-81
2022/01/11 13:04:44;;;;;;;14.60;13.43;;;5.40;99.90;;;;;;5037334;28;20223;-81
2022/01/11 13:07:17;;;;;;;14.47;13.47;;;5.50;99.90;;;;;;5043547;28;20680;-81
2022/01/11 13:09:45;;;;;;;14.10;13.10;;;5.50;99.90;;;;;;5045357;28;20211;-81
2022/01/11 13:12:25;;;;;;;13.53;12.50;;;5.60;99.90;;;;;;5049310;28;20279;-82
2022/01/11 13:14:59;;;;;;;14.20;13.30;;;5.60;99.90;;;;;;5053380;28;20228;-81
2022/01/11 13:17:28;;;;;;;13.50;12.60;;;5.70;99.90;;;;;;5042393;28;20206;-81
2022/01/11 13:20:07;;;;;;;13.67;12.80;;;5.70;99.90;;;;;;5046446;28;20220;-81
2022/01/11 13:22:35;;;;;;;12.50;11.60;;;5.70;99.90;;;;;;5034964;28;20214;-79
2022/01/11 13:25:04;;;;;;;13.00;12.20;;;5.70;99.90;;;;;;5038524;28;20660;-81
2022/01/11 13:27:31;;;;;;;12.83;12.03;;;5.60;99.90;;;;;;5037463;28;20624;-83
2022/01/11 13:29:58;;;;;;;12.33;11.53;;;5.60;99.90;;;;;;5043227;28;20215;-80
2022/01/11 13:32:25;;;;;;;12.07;11.27;;;5.60;99.90;;;;;;5038188;28;20253;-80
2022/01/11 13:34:53;;;;;;;12.87;11.87;;;5.60;99.90;;;;;;5041182;28;20261;-81
2022/01/11 13:37:27;;;;;;;12.57;11.77;;;5.60;99.90;;;;;;5042258;28;20618;-81
2022/01/11 13:39:55;;;;;;;12.10;11.30;;;5.50;99.90;;;;;;5045178;28;20227;-82
2022/01/11 13:42:28;;;;;;;11.97;11.17;;;5.50;99.90;;;;;;5039414;28;20224;-78